sensor_id;sensor_type;location;lat;lon;timestamp;pressure;altitude;pressure_sealevel;temperature;humidity
49943;BME280;36011;53.362;58.948;2023-08-24T00:01:45;95904.25;;;10.91;64.51
49943;BME280;36011;53.362;58.948;2023-08-24T00:04:49;95911.69;;;10.86;64.90
49943;BME280;36011;53.362;58.948;2023-08-24T00:07:53;95913.84;;;10.81;64.91
49943;BME280;36011;53.362;58.948;2023-08-24T00:10:56;95915.56;;;10.70;64.93
49943;BME280;36011;53.362;58.948;2023-08-24T00:14:02;95924.66;;;10.66;65.06
49943;BME280;36011;53.362;58.948;2023-08-24T00:17:11;95928.50;;;10.62;65.39
49943;BME280;36011;53.362;58.948;2023-08-24T00:20:15;95930.53;;;10.59;65.52
49943;BME280;36011;53.362;58.948;2023-08-24T00:23:18;95930.44;;;10.49;65.61
49943;BME280;36011;53.362;58.948;2023-08-24T00:26:24;95931.91;;;10.42;65.98
49943;BME280;36011;53.362;58.948;2023-08-24T00:29:31;95934.75;;;10.39;66.19
49943;BME280;36011;53.362;58.948;2023-08-24T00:32:33;95926.66;;;10.30;66.00
49943;BME280;36011;53.362;58.948;2023-08-24T00:35:37;95936.19;;;10.31;66.09
49943;BME280;36011;53.362;58.948;2023-08-24T00:38:43;95875.72;;;9.86;66.25
49943;BME280;36011;53.362;58.948;2023-08-24T00:41:45;95932.56;;;10.21;66.47
49943;BME280;36011;53.362;58.948;2023-08-24T00:44:52;95941.19;;;10.23;66.27
49943;BME280;36011;53.362;58.948;2023-08-24T00:47:55;95945.25;;;10.39;65.97
49943;BME280;36011;53.362;58.948;2023-08-24T00:51:02;95945.88;;;10.42;65.53
49943;BME280;36011;53.362;58.948;2023-08-24T00:54:05;95941.09;;;10.47;65.35
49943;BME280;36011;53.362;58.948;2023-08-24T00:57:09;95949.56;;;10.51;65.49
49943;BME280;36011;53.362;58.948;2023-08-24T01:00:11;95956.00;;;10.47;65.47
49943;BME280;36011;53.362;58.948;2023-08-24T01:03:15;95945.06;;;10.42;65.79
49943;BME280;36011;53.362;58.948;2023-08-24T01:06:21;95949.34;;;10.43;65.65
49943;BME280;36011;53.362;58.948;2023-08-24T01:09:27;95952.47;;;10.37;65.54
49943;BME280;36011;53.362;58.948;2023-08-24T01:12:51;95966.09;;;10.42;65.92
49943;BME280;36011;53.362;58.948;2023-08-24T01:16:13;95959.38;;;10.38;66.00
49943;BME280;36011;53.362;58.948;2023-08-24T01:19:42;95965.22;;;10.41;65.76
49943;BME280;36011;53.362;58.948;2023-08-24T01:23:04;95968.47;;;10.45;65.70
49943;BME280;36011;53.362;58.948;2023-08-24T01:26:17;95977.28;;;10.55;65.26
49943;BME280;36011;53.362;58.948;2023-08-24T01:29:23;95969.88;;;10.71;64.88
49943;BME280;36011;53.362;58.948;2023-08-24T01:32:27;95976.28;;;10.90;64.44
49943;BME280;36011;53.362;58.948;2023-08-24T01:35:33;95963.31;;;10.98;64.12
49943;BME280;36011;53.362;58.948;2023-08-24T01:38:35;95981.47;;;11.12;63.73
49943;BME280;36011;53.362;58.948;2023-08-24T01:41:44;95975.38;;;11.12;63.25
49943;BME280;36011;53.362;58.948;2023-08-24T01:44:58;95983.16;;;11.13;62.80
49943;BME280;36011;53.362;58.948;2023-08-24T01:48:05;95975.00;;;11.16;62.84
49943;BME280;36011;53.362;58.948;2023-08-24T01:51:12;95989.13;;;11.27;62.61
49943;BME280;36011;53.362;58.948;2023-08-24T01:54:17;95984.50;;;11.40;62.45
49943;BME280;36011;53.362;58.948;2023-08-24T01:57:18;95975.44;;;11.54;61.87
49943;BME280;36011;53.362;58.948;2023-08-24T02:00:22;95974.09;;;11.59;61.81
49943;BME280;36011;53.362;58.948;2023-08-24T02:03:28;95968.56;;;11.62;61.52
49943;BME280;36011;53.362;58.948;2023-08-24T02:06:35;95973.31;;;11.68;61.64
49943;BME280;36011;53.362;58.948;2023-08-24T02:09:37;95968.06;;;11.68;61.35
49943;BME280;36011;53.362;58.948;2023-08-24T02:12:40;95969.75;;;11.69;61.23
49943;BME280;36011;53.362;58.948;2023-08-24T02:15:44;95969.69;;;11.81;61.13
49943;BME280;36011;53.362;58.948;2023-08-24T02:18:48;95970.94;;;11.98;60.66
49943;BME280;36011;53.362;58.948;2023-08-24T02:21:56;95970.31;;;12.15;60.24
49943;BME280;36011;53.362;58.948;2023-08-24T02:24:57;95979.88;;;12.37;59.82
49943;BME280;36011;53.362;58.948;2023-08-24T02:27:59;95984.69;;;12.63;59.37
49943;BME280;36011;53.362;58.948;2023-08-24T02:31:04;95986.44;;;12.93;58.76
49943;BME280;36011;53.362;58.948;2023-08-24T02:34:09;95977.59;;;13.23;57.85
49943;BME280;36011;53.362;58.948;2023-08-24T02:37:13;95971.91;;;13.47;57.20
49943;BME280;36011;53.362;58.948;2023-08-24T02:40:20;95978.72;;;13.69;56.61
49943;BME280;36011;53.362;58.948;2023-08-24T02:43:23;95983.72;;;13.91;56.37
49943;BME280;36011;53.362;58.948;2023-08-24T02:46:27;95974.47;;;14.15;55.91
49943;BME280;36011;53.362;58.948;2023-08-24T02:49:31;95978.03;;;14.33;55.41
49943;BME280;36011;53.362;58.948;2023-08-24T02:52:40;95981.88;;;14.49;55.19
49943;BME280;36011;53.362;58.948;2023-08-24T02:55:46;95982.72;;;14.59;54.81
49943;BME280;36011;53.362;58.948;2023-08-24T02:58:49;95976.28;;;14.62;54.76
49943;BME280;36011;53.362;58.948;2023-08-24T03:01:54;95985.84;;;14.72;54.60
49943;BME280;36011;53.362;58.948;2023-08-24T03:04:55;95985.16;;;14.70;54.57
49943;BME280;36011;53.362;58.948;2023-08-24T03:07:58;95980.47;;;14.64;54.72
49943;BME280;36011;53.362;58.948;2023-08-24T03:11:04;95990.47;;;14.60;54.90
49943;BME280;36011;53.362;58.948;2023-08-24T03:14:09;95993.53;;;14.66;54.86
49943;BME280;36011;53.362;58.948;2023-08-24T03:17:10;95998.25;;;14.72;54.84
49943;BME280;36011;53.362;58.948;2023-08-24T03:20:14;95994.34;;;14.76;54.77
49943;BME280;36011;53.362;58.948;2023-08-24T03:23:16;95989.44;;;14.81;55.04
49943;BME280;36011;53.362;58.948;2023-08-24T03:26:22;95996.91;;;14.86;55.37
49943;BME280;36011;53.362;58.948;2023-08-24T03:29:29;96003.59;;;14.90;55.22
49943;BME280;36011;53.362;58.948;2023-08-24T03:32:38;96007.91;;;14.91;55.43
49943;BME280;36011;53.362;58.948;2023-08-24T03:35:43;96001.50;;;14.93;55.83
49943;BME280;36011;53.362;58.948;2023-08-24T03:38:49;95993.97;;;14.89;56.32
49943;BME280;36011;53.362;58.948;2023-08-24T03:41:52;96005.56;;;14.88;56.83
49943;BME280;36011;53.362;58.948;2023-08-24T03:44:56;95999.56;;;14.86;57.09
49943;BME280;36011;53.362;58.948;2023-08-24T03:48:00;96002.09;;;14.87;56.94
49943;BME280;36011;53.362;58.948;2023-08-24T03:51:02;95976.63;;;14.76;56.65
49943;BME280;36011;53.362;58.948;2023-08-24T03:54:04;95989.78;;;14.96;56.01
49943;BME280;36011;53.362;58.948;2023-08-24T03:57:08;95997.84;;;14.94;55.47
49943;BME280;36011;53.362;58.948;2023-08-24T04:00:13;95993.13;;;14.98;54.90
49943;BME280;36011;53.362;58.948;2023-08-24T04:03:17;96001.72;;;15.00;54.29
49943;BME280;36011;53.362;58.948;2023-08-24T04:06:20;95995.47;;;15.01;54.08
49943;BME280;36011;53.362;58.948;2023-08-24T04:09:27;95995.84;;;15.06;52.99
49943;BME280;36011;53.362;58.948;2023-08-24T04:12:32;95995.25;;;15.12;51.65
49943;BME280;36011;53.362;58.948;2023-08-24T04:15:36;95991.63;;;15.31;51.31
49943;BME280;36011;53.362;58.948;2023-08-24T04:18:42;95998.41;;;15.43;50.63
49943;BME280;36011;53.362;58.948;2023-08-24T04:21:47;96000.28;;;15.51;50.20
49943;BME280;36011;53.362;58.948;2023-08-24T04:24:48;95999.06;;;15.63;49.11
49943;BME280;36011;53.362;58.948;2023-08-24T04:27:52;95993.19;;;15.69;48.20
49943;BME280;36011;53.362;58.948;2023-08-24T04:30:59;95988.66;;;15.80;47.58
49943;BME280;36011;53.362;58.948;2023-08-24T04:34:00;95992.72;;;15.92;47.19
49943;BME280;36011;53.362;58.948;2023-08-24T04:37:08;95997.78;;;16.03;46.38
49943;BME280;36011;53.362;58.948;2023-08-24T04:40:12;95996.53;;;16.15;45.97
49943;BME280;36011;53.362;58.948;2023-08-24T04:43:19;96002.09;;;16.30;44.83
49943;BME280;36011;53.362;58.948;2023-08-24T04:46:23;95990.00;;;16.36;44.91
49943;BME280;36011;53.362;58.948;2023-08-24T04:49:27;95987.47;;;16.52;44.08
49943;BME280;36011;53.362;58.948;2023-08-24T04:52:33;95991.19;;;16.68;43.39
49943;BME280;36011;53.362;58.948;2023-08-24T04:55:35;95986.66;;;16.86;41.73
49943;BME280;36011;53.362;58.948;2023-08-24T04:58:39;95983.69;;;16.97;40.52
49943;BME280;36011;53.362;58.948;2023-08-24T05:01:43;95991.44;;;17.25;40.47
49943;BME280;36011;53.362;58.948;2023-08-24T05:04:50;95979.84;;;17.50;39.56
49943;BME280;36011;53.362;58.948;2023-08-24T05:07:53;95982.22;;;17.94;38.16
49943;BME280;36011;53.362;58.948;2023-08-24T05:10:56;95993.19;;;18.24;37.06
49943;BME280;36011;53.362;58.948;2023-08-24T05:14:02;95986.75;;;18.82;36.10
49943;BME280;36011;53.362;58.948;2023-08-24T05:17:08;95991.78;;;20.70;33.73
49943;BME280;36011;53.362;58.948;2023-08-24T05:20:10;95991.13;;;24.80;28.34
49943;BME280;36011;53.362;58.948;2023-08-24T05:23:14;95998.13;;;28.55;24.11
49943;BME280;36011;53.362;58.948;2023-08-24T05:26:21;95996.25;;;31.30;21.19
49943;BME280;36011;53.362;58.948;2023-08-24T05:29:27;95993.50;;;31.69;20.50
49943;BME280;36011;53.362;58.948;2023-08-24T05:32:29;95995.44;;;31.96;20.13
49943;BME280;36011;53.362;58.948;2023-08-24T05:35:35;95965.50;;;31.47;19.52
49943;BME280;36011;53.362;58.948;2023-08-24T05:38:41;95983.84;;;30.62;19.61
49943;BME280;36011;53.362;58.948;2023-08-24T05:41:53;95984.44;;;29.44;20.97
49943;BME280;36011;53.362;58.948;2023-08-24T05:44:56;95978.41;;;30.45;20.49
49943;BME280;36011;53.362;58.948;2023-08-24T05:47:58;95991.38;;;31.10;19.39
49943;BME280;36011;53.362;58.948;2023-08-24T05:51:01;95958.31;;;30.97;19.07
49943;BME280;36011;53.362;58.948;2023-08-24T05:54:10;95994.75;;;31.84;18.90
49943;BME280;36011;53.362;58.948;2023-08-24T05:57:16;95989.97;;;32.82;17.89
49943;BME280;36011;53.362;58.948;2023-08-24T06:00:18;96003.97;;;34.48;16.52
49943;BME280;36011;53.362;58.948;2023-08-24T06:03:22;96008.81;;;35.53;14.77
49943;BME280;36011;53.362;58.948;2023-08-24T06:06:25;95997.72;;;35.84;14.37
49943;BME280;36011;53.362;58.948;2023-08-24T06:09:32;95995.41;;;36.11;14.21
49943;BME280;36011;53.362;58.948;2023-08-24T06:12:39;96003.47;;;37.59;13.40
49943;BME280;36011;53.362;58.948;2023-08-24T06:15:41;96009.91;;;38.87;12.30
49943;BME280;36011;53.362;58.948;2023-08-24T06:18:43;96005.97;;;40.31;11.56
49943;BME280;36011;53.362;58.948;2023-08-24T06:21:52;96010.00;;;41.15;10.75
49943;BME280;36011;53.362;58.948;2023-08-24T06:24:57;95997.13;;;41.41;10.63
49943;BME280;36011;53.362;58.948;2023-08-24T06:28:03;96007.47;;;42.59;10.47
49943;BME280;36011;53.362;58.948;2023-08-24T06:31:05;96003.06;;;43.87;9.09
49943;BME280;36011;53.362;58.948;2023-08-24T06:34:11;96002.78;;;44.09;8.93
49943;BME280;36011;53.362;58.948;2023-08-24T06:37:16;96009.19;;;43.71;9.21
49943;BME280;36011;53.362;58.948;2023-08-24T06:40:17;96004.47;;;44.86;8.48
49943;BME280;36011;53.362;58.948;2023-08-24T06:43:22;96003.34;;;43.09;8.98
49943;BME280;36011;53.362;58.948;2023-08-24T06:46:23;95995.75;;;41.61;9.80
49943;BME280;36011;53.362;58.948;2023-08-24T06:49:26;96002.72;;;41.90;11.12
49943;BME280;36011;53.362;58.948;2023-08-24T06:52:30;95980.97;;;38.89;11.14
49943;BME280;36011;53.362;58.948;2023-08-24T06:55:31;95982.19;;;37.45;12.69
49943;BME280;36011;53.362;58.948;2023-08-24T06:58:37;95974.44;;;36.36;12.85
49943;BME280;36011;53.362;58.948;2023-08-24T07:01:39;95989.78;;;37.53;11.95
49943;BME280;36011;53.362;58.948;2023-08-24T07:04:45;95981.22;;;39.20;11.21
49943;BME280;36011;53.362;58.948;2023-08-24T07:07:49;95977.63;;;38.59;11.09
49943;BME280;36011;53.362;58.948;2023-08-24T07:10:57;95975.25;;;37.29;11.73
49943;BME280;36011;53.362;58.948;2023-08-24T07:14:01;95976.97;;;36.67;12.63
49943;BME280;36011;53.362;58.948;2023-08-24T07:17:05;95977.75;;;36.96;12.42
49943;BME280;36011;53.362;58.948;2023-08-24T07:20:11;95982.84;;;35.40;12.96
49943;BME280;36011;53.362;58.948;2023-08-24T07:23:13;95984.13;;;36.57;12.41
49943;BME280;36011;53.362;58.948;2023-08-24T07:26:17;95982.47;;;36.91;12.69
49943;BME280;36011;53.362;58.948;2023-08-24T07:29:23;95990.22;;;37.66;12.04
49943;BME280;36011;53.362;58.948;2023-08-24T07:32:26;95971.59;;;35.57;12.60
49943;BME280;36011;53.362;58.948;2023-08-24T07:35:35;95970.09;;;34.13;13.89
49943;BME280;36011;53.362;58.948;2023-08-24T07:38:36;95967.31;;;33.92;14.24
49943;BME280;36011;53.362;58.948;2023-08-24T07:41:44;95962.91;;;31.57;15.76
49943;BME280;36011;53.362;58.948;2023-08-24T07:44:50;95936.69;;;30.17;16.67
49943;BME280;36011;53.362;58.948;2023-08-24T07:47:54;95954.44;;;29.22;17.39
49943;BME280;36011;53.362;58.948;2023-08-24T07:51:02;95955.63;;;30.63;16.23
49943;BME280;36011;53.362;58.948;2023-08-24T07:54:09;95947.81;;;30.83;16.06
49943;BME280;36011;53.362;58.948;2023-08-24T07:57:15;95951.94;;;32.28;15.17
49943;BME280;36011;53.362;58.948;2023-08-24T08:00:19;95962.41;;;35.27;13.27
49943;BME280;36011;53.362;58.948;2023-08-24T08:03:24;95967.03;;;37.29;12.13
49943;BME280;36011;53.362;58.948;2023-08-24T08:06:30;95969.69;;;38.39;11.07
49943;BME280;36011;53.362;58.948;2023-08-24T08:09:36;95968.84;;;39.37;11.02
49943;BME280;36011;53.362;58.948;2023-08-24T08:12:40;95971.56;;;41.67;10.05
49943;BME280;36011;53.362;58.948;2023-08-24T08:15:43;95966.50;;;40.08;10.10
49943;BME280;36011;53.362;58.948;2023-08-24T08:18:47;95960.13;;;36.44;12.32
49943;BME280;36011;53.362;58.948;2023-08-24T08:21:51;95957.47;;;36.34;12.80
49943;BME280;36011;53.362;58.948;2023-08-24T08:24:53;95951.34;;;35.58;12.70
49943;BME280;36011;53.362;58.948;2023-08-24T08:27:57;95944.38;;;33.88;14.04
49943;BME280;36011;53.362;58.948;2023-08-24T08:31:03;95939.00;;;31.86;15.69
49943;BME280;36011;53.362;58.948;2023-08-24T08:34:08;95936.66;;;31.02;16.45
49943;BME280;36011;53.362;58.948;2023-08-24T08:37:17;95943.38;;;30.10;16.95
49943;BME280;36011;53.362;58.948;2023-08-24T08:40:23;95942.69;;;29.05;17.87
49943;BME280;36011;53.362;58.948;2023-08-24T08:43:32;95941.00;;;28.21;18.38
49943;BME280;36011;53.362;58.948;2023-08-24T08:46:41;95948.34;;;27.91;18.65
49943;BME280;36011;53.362;58.948;2023-08-24T08:49:49;95938.31;;;28.21;18.81
49943;BME280;36011;53.362;58.948;2023-08-24T08:52:53;95941.50;;;28.89;18.39
49943;BME280;36011;53.362;58.948;2023-08-24T08:56:00;95943.50;;;30.03;17.57
49943;BME280;36011;53.362;58.948;2023-08-24T08:59:09;95953.44;;;33.31;15.05
49943;BME280;36011;53.362;58.948;2023-08-24T09:02:19;95945.53;;;34.28;14.13
49943;BME280;36011;53.362;58.948;2023-08-24T09:05:22;95951.53;;;34.81;13.82
49943;BME280;36011;53.362;58.948;2023-08-24T09:08:29;95959.53;;;37.59;12.21
49943;BME280;36011;53.362;58.948;2023-08-24T09:11:33;95963.34;;;39.37;10.83
49943;BME280;36011;53.362;58.948;2023-08-24T09:14:37;95958.63;;;40.51;10.43
49943;BME280;36011;53.362;58.948;2023-08-24T09:17:43;95970.03;;;42.70;9.54
49943;BME280;36011;53.362;58.948;2023-08-24T09:20:47;95966.25;;;43.48;8.68
49943;BME280;36011;53.362;58.948;2023-08-24T09:23:57;95956.75;;;40.60;10.12
49943;BME280;36011;53.362;58.948;2023-08-24T09:27:17;95947.72;;;39.60;10.82
49943;BME280;36011;53.362;58.948;2023-08-24T09:30:22;95944.91;;;38.25;11.47
49943;BME280;36011;53.362;58.948;2023-08-24T09:33:28;95939.28;;;36.09;12.43
49943;BME280;36011;53.362;58.948;2023-08-24T09:36:36;95945.53;;;34.08;13.92
49943;BME280;36011;53.362;58.948;2023-08-24T09:39:38;95931.06;;;33.29;14.35
49943;BME280;36011;53.362;58.948;2023-08-24T09:42:43;95933.03;;;32.86;14.62
49943;BME280;36011;53.362;58.948;2023-08-24T09:45:53;95917.47;;;31.80;15.13
49943;BME280;36011;53.362;58.948;2023-08-24T09:48:57;95915.41;;;29.92;16.79
49943;BME280;36011;53.362;58.948;2023-08-24T09:52:02;95916.69;;;28.69;17.82
49943;BME280;36011;53.362;58.948;2023-08-24T09:55:11;95914.91;;;28.15;18.84
49943;BME280;36011;53.362;58.948;2023-08-24T09:58:20;95922.75;;;28.05;18.68
49943;BME280;36011;53.362;58.948;2023-08-24T10:01:26;95915.25;;;28.07;18.90
49943;BME280;36011;53.362;58.948;2023-08-24T10:04:34;95919.41;;;28.80;18.52
49943;BME280;36011;53.362;58.948;2023-08-24T10:07:43;95922.56;;;28.30;18.63
49943;BME280;36011;53.362;58.948;2023-08-24T10:10:55;95913.09;;;27.07;19.58
49943;BME280;36011;53.362;58.948;2023-08-24T10:14:10;95918.00;;;26.30;20.55
49943;BME280;36011;53.362;58.948;2023-08-24T10:17:18;95916.19;;;25.67;21.18
49943;BME280;36011;53.362;58.948;2023-08-24T10:20:23;95914.19;;;25.62;21.59
49943;BME280;36011;53.362;58.948;2023-08-24T10:23:29;95916.59;;;26.27;20.68
49943;BME280;36011;53.362;58.948;2023-08-24T10:26:32;95918.91;;;28.36;19.37
49943;BME280;36011;53.362;58.948;2023-08-24T10:29:37;95915.41;;;30.09;17.82
49943;BME280;36011;53.362;58.948;2023-08-24T10:32:41;95910.03;;;30.65;16.56
49943;BME280;36011;53.362;58.948;2023-08-24T10:35:43;95911.44;;;30.68;16.15
49943;BME280;36011;53.362;58.948;2023-08-24T10:38:46;95911.97;;;30.31;17.22
49943;BME280;36011;53.362;58.948;2023-08-24T10:41:52;95910.34;;;29.39;18.06
49943;BME280;36011;53.362;58.948;2023-08-24T10:44:56;95926.22;;;28.48;19.06
49943;BME280;36011;53.362;58.948;2023-08-24T10:48:02;95924.44;;;27.76;19.68
49943;BME280;36011;53.362;58.948;2023-08-24T10:54:30;95906.47;;;26.66;20.87
49943;BME280;36011;53.362;58.948;2023-08-24T10:57:36;95902.28;;;26.52;20.97
49943;BME280;36011;53.362;58.948;2023-08-24T11:00:50;95898.38;;;26.23;20.80
49943;BME280;36011;53.362;58.948;2023-08-24T11:03:57;95904.94;;;26.08;21.13
49943;BME280;36011;53.362;58.948;2023-08-24T11:07:18;95908.94;;;26.24;21.15
49943;BME280;36011;53.362;58.948;2023-08-24T11:10:20;95903.41;;;26.62;20.72
49943;BME280;36011;53.362;58.948;2023-08-24T11:13:27;95900.03;;;27.83;19.72
49943;BME280;36011;53.362;58.948;2023-08-24T11:16:49;95901.66;;;29.82;17.64
49943;BME280;36011;53.362;58.948;2023-08-24T11:19:53;95908.31;;;29.91;17.25
49943;BME280;36011;53.362;58.948;2023-08-24T11:23:03;95904.91;;;28.75;18.30
49943;BME280;36011;53.362;58.948;2023-08-24T11:26:07;95869.59;;;27.45;19.28
49943;BME280;36011;53.362;58.948;2023-08-24T11:29:11;95902.50;;;27.05;19.64
49943;BME280;36011;53.362;58.948;2023-08-24T11:32:13;95893.44;;;27.00;19.72
49943;BME280;36011;53.362;58.948;2023-08-24T11:35:17;95894.66;;;27.94;18.82
49943;BME280;36011;53.362;58.948;2023-08-24T11:38:23;95895.63;;;28.82;17.69
49943;BME280;36011;53.362;58.948;2023-08-24T11:41:28;95904.75;;;29.17;17.50
49943;BME280;36011;53.362;58.948;2023-08-24T11:44:48;95901.16;;;28.64;17.82
49943;BME280;36011;53.362;58.948;2023-08-24T11:48:01;95901.31;;;28.46;18.29
49943;BME280;36011;53.362;58.948;2023-08-24T11:51:12;95888.53;;;27.57;18.77
49943;BME280;36011;53.362;58.948;2023-08-24T11:54:19;95902.97;;;26.22;19.83
49943;BME280;36011;53.362;58.948;2023-08-24T11:57:22;95891.63;;;25.18;21.06
49943;BME280;36011;53.362;58.948;2023-08-24T12:00:30;95889.25;;;24.97;21.75
49943;BME280;36011;53.362;58.948;2023-08-24T12:03:37;95902.28;;;24.93;21.60
49943;BME280;36011;53.362;58.948;2023-08-24T12:06:43;95902.88;;;24.95;21.82
49943;BME280;36011;53.362;58.948;2023-08-24T12:09:52;95901.09;;;25.34;21.07
49943;BME280;36011;53.362;58.948;2023-08-24T12:13:07;95904.13;;;25.44;21.09
49943;BME280;36011;53.362;58.948;2023-08-24T12:16:15;95906.44;;;24.82;22.16
49943;BME280;36011;53.362;58.948;2023-08-24T12:19:21;95903.84;;;24.36;22.38
49943;BME280;36011;53.362;58.948;2023-08-24T12:22:27;95903.91;;;24.09;22.50
49943;BME280;36011;53.362;58.948;2023-08-24T12:25:37;95900.56;;;23.74;23.12
49943;BME280;36011;53.362;58.948;2023-08-24T12:28:42;95901.75;;;23.45;23.47
49943;BME280;36011;53.362;58.948;2023-08-24T12:31:46;95899.22;;;23.23;23.54
49943;BME280;36011;53.362;58.948;2023-08-24T12:34:55;95903.75;;;23.16;23.33
49943;BME280;36011;53.362;58.948;2023-08-24T12:38:01;95894.03;;;23.08;23.48
49943;BME280;36011;53.362;58.948;2023-08-24T12:41:11;95887.47;;;22.76;23.75
49943;BME280;36011;53.362;58.948;2023-08-24T12:44:15;95898.28;;;22.55;24.05
49943;BME280;36011;53.362;58.948;2023-08-24T12:47:19;95894.19;;;22.24;23.79
49943;BME280;36011;53.362;58.948;2023-08-24T12:50:28;95899.09;;;21.92;24.21
49943;BME280;36011;53.362;58.948;2023-08-24T12:53:32;95899.63;;;21.81;24.55
49943;BME280;36011;53.362;58.948;2023-08-24T12:56:38;95903.25;;;21.73;25.07
49943;BME280;36011;53.362;58.948;2023-08-24T12:59:47;95891.88;;;21.43;25.25
49943;BME280;36011;53.362;58.948;2023-08-24T13:02:51;95900.28;;;21.25;25.71
49943;BME280;36011;53.362;58.948;2023-08-24T13:05:57;95908.34;;;20.89;26.22
49943;BME280;36011;53.362;58.948;2023-08-24T13:09:03;95893.34;;;20.58;26.12
49943;BME280;36011;53.362;58.948;2023-08-24T13:12:05;95905.84;;;20.43;26.73
49943;BME280;36011;53.362;58.948;2023-08-24T13:15:10;95916.34;;;20.30;26.90
49943;BME280;36011;53.362;58.948;2023-08-24T13:18:12;95913.84;;;20.13;27.36
49943;BME280;36011;53.362;58.948;2023-08-24T13:21:14;95907.75;;;20.05;27.89
49943;BME280;36011;53.362;58.948;2023-08-24T13:24:15;95901.66;;;19.96;27.62
49943;BME280;36011;53.362;58.948;2023-08-24T13:27:19;95910.13;;;19.85;28.10
49943;BME280;36011;53.362;58.948;2023-08-24T13:30:20;95917.16;;;19.78;28.09
49943;BME280;36011;53.362;58.948;2023-08-24T13:33:27;95911.06;;;19.69;28.32
49943;BME280;36011;53.362;58.948;2023-08-24T13:36:31;95917.63;;;19.58;28.39
49943;BME280;36011;53.362;58.948;2023-08-24T13:39:35;95908.03;;;19.49;28.68
49943;BME280;36011;53.362;58.948;2023-08-24T13:42:36;95914.34;;;19.56;29.19
49943;BME280;36011;53.362;58.948;2023-08-24T13:45:40;95909.81;;;19.34;29.26
49943;BME280;36011;53.362;58.948;2023-08-24T13:48:47;95923.78;;;19.36;29.47
49943;BME280;36011;53.362;58.948;2023-08-24T13:51:51;95918.81;;;19.33;29.57
49943;BME280;36011;53.362;58.948;2023-08-24T13:54:53;95926.88;;;19.24;29.66
49943;BME280;36011;53.362;58.948;2023-08-24T13:57:54;95925.31;;;19.07;30.04
49943;BME280;36011;53.362;58.948;2023-08-24T14:00:58;95939.72;;;18.90;30.06
49943;BME280;36011;53.362;58.948;2023-08-24T14:04:00;95933.94;;;18.86;29.80
49943;BME280;36011;53.362;58.948;2023-08-24T14:07:03;95941.47;;;18.74;30.37
49943;BME280;36011;53.362;58.948;2023-08-24T14:10:07;95937.81;;;18.59;30.48
49943;BME280;36011;53.362;58.948;2023-08-24T14:13:19;95945.22;;;18.40;30.84
49943;BME280;36011;53.362;58.948;2023-08-24T14:16:26;95944.56;;;18.30;31.25
49943;BME280;36011;53.362;58.948;2023-08-24T14:19:28;95942.25;;;18.19;30.90
49943;BME280;36011;53.362;58.948;2023-08-24T14:22:32;95932.81;;;18.00;31.21
49943;BME280;36011;53.362;58.948;2023-08-24T14:25:34;95946.97;;;17.92;31.78
49943;BME280;36011;53.362;58.948;2023-08-24T14:28:52;95938.50;;;17.81;31.33
49943;BME280;36011;53.362;58.948;2023-08-24T14:31:58;95941.97;;;17.73;31.87
49943;BME280;36011;53.362;58.948;2023-08-24T14:35:01;95942.97;;;17.64;31.81
49943;BME280;36011;53.362;58.948;2023-08-24T14:38:07;95938.28;;;17.58;32.07
49943;BME280;36011;53.362;58.948;2023-08-24T14:41:10;95943.63;;;17.49;32.10
49943;BME280;36011;53.362;58.948;2023-08-24T14:44:12;95940.63;;;17.44;32.51
49943;BME280;36011;53.362;58.948;2023-08-24T14:47:16;95954.25;;;17.41;32.55
49943;BME280;36011;53.362;58.948;2023-08-24T14:50:20;95958.53;;;17.34;32.77
49943;BME280;36011;53.362;58.948;2023-08-24T14:53:21;95956.53;;;17.28;33.20
49943;BME280;36011;53.362;58.948;2023-08-24T14:56:23;95956.88;;;17.25;33.40
49943;BME280;36011;53.362;58.948;2023-08-24T14:59:24;95956.84;;;17.17;33.75
49943;BME280;36011;53.362;58.948;2023-08-24T15:02:28;95950.22;;;17.13;33.72
49943;BME280;36011;53.362;58.948;2023-08-24T15:05:55;95956.34;;;17.13;33.85
49943;BME280;36011;53.362;58.948;2023-08-24T15:08:59;95953.78;;;16.95;33.81
49943;BME280;36011;53.362;58.948;2023-08-24T15:12:04;95960.44;;;16.91;34.23
49943;BME280;36011;53.362;58.948;2023-08-24T15:15:07;95959.75;;;16.89;34.43
49943;BME280;36011;53.362;58.948;2023-08-24T15:18:11;95953.13;;;16.85;34.60
49943;BME280;36011;53.362;58.948;2023-08-24T15:21:15;95966.06;;;16.88;34.80
49943;BME280;36011;53.362;58.948;2023-08-24T15:24:20;95967.69;;;16.81;34.99
49943;BME280;36011;53.362;58.948;2023-08-24T15:27:25;95953.00;;;16.69;35.14
49943;BME280;36011;53.362;58.948;2023-08-24T15:30:26;95965.63;;;16.67;35.17
49943;BME280;36011;53.362;58.948;2023-08-24T15:33:30;95961.41;;;16.56;34.99
49943;BME280;36011;53.362;58.948;2023-08-24T15:36:32;95958.25;;;16.52;35.09
49943;BME280;36011;53.362;58.948;2023-08-24T15:39:40;95956.09;;;16.48;35.53
49943;BME280;36011;53.362;58.948;2023-08-24T15:42:43;95965.84;;;16.47;35.50
49943;BME280;36011;53.362;58.948;2023-08-24T15:45:49;95969.81;;;16.43;35.75
49943;BME280;36011;53.362;58.948;2023-08-24T15:48:52;95968.78;;;16.36;35.82
49943;BME280;36011;53.362;58.948;2023-08-24T15:51:59;95973.88;;;16.29;36.20
49943;BME280;36011;53.362;58.948;2023-08-24T15:55:00;95982.31;;;16.25;36.32
49943;BME280;36011;53.362;58.948;2023-08-24T15:58:04;95983.16;;;16.25;36.75
49943;BME280;36011;53.362;58.948;2023-08-24T16:01:08;95981.66;;;16.23;36.68
49943;BME280;36011;53.362;58.948;2023-08-24T16:04:12;95987.28;;;16.20;36.81
49943;BME280;36011;53.362;58.948;2023-08-24T16:07:16;95994.88;;;16.14;37.06
49943;BME280;36011;53.362;58.948;2023-08-24T16:10:20;95983.06;;;16.09;37.22
49943;BME280;36011;53.362;58.948;2023-08-24T16:13:24;95993.66;;;16.09;37.41